createdAt,value
2018-11-22T12:18:07.011Z,2.80
2018-11-22T12:20:35.103Z,2.90
2018-11-22T12:23:03.176Z,2.90
2018-11-22T12:25:31.868Z,2.90
2018-11-22T12:28:01.241Z,2.80
2018-11-22T12:30:30.744Z,2.80
2018-11-22T12:32:59.563Z,2.80
2018-11-22T12:35:33.588Z,2.80
2018-11-22T12:38:07.176Z,2.90
2018-11-22T12:40:35.255Z,2.90
2018-11-22T12:43:03.335Z,3.00
2018-11-22T12:45:31.983Z,3.00
2018-11-22T12:48:00.166Z,3.10
2018-11-22T12:50:28.232Z,3.10
2018-11-22T12:52:56.291Z,3.20
2018-11-22T12:55:24.389Z,3.20
2018-11-22T12:57:52.536Z,3.10
2018-11-22T13:00:20.609Z,3.20
2018-11-22T13:02:51.718Z,3.10
2018-11-22T13:05:20.450Z,3.10
2018-11-22T13:07:48.516Z,3.10
2018-11-22T13:10:17.827Z,3.00
2018-11-22T13:12:46.948Z,3.00
2018-11-22T13:15:16.484Z,3.00
2018-11-22T13:17:44.585Z,3.00
2018-11-22T13:20:14.053Z,3.00
2018-11-22T13:22:42.143Z,3.00
2018-11-22T13:25:15.390Z,3.00
2018-11-22T13:27:43.481Z,2.90
2018-11-22T13:30:15.780Z,2.90
2018-11-22T13:32:44.868Z,2.90
2018-11-22T13:35:13.697Z,2.90
2018-11-22T13:37:42.939Z,2.80
2018-11-22T13:40:11.583Z,2.90
2018-11-22T13:42:40.504Z,2.90
2018-11-22T13:45:11.339Z,2.90
2018-11-22T13:47:41.029Z,3.00
2018-11-22T13:50:14.546Z,3.00
2018-11-22T13:52:43.106Z,3.00
2018-11-22T13:55:11.201Z,3.00
2018-11-22T13:57:39.780Z,3.00
2018-11-22T14:00:11.732Z,2.90
2018-11-22T14:02:39.971Z,3.00
2018-11-22T14:05:11.694Z,3.00
2018-11-22T14:07:36.444Z,3.00
2018-11-22T14:10:06.829Z,3.00
2018-11-22T14:12:34.934Z,3.00
2018-11-22T14:15:03.303Z,3.00
2018-11-22T14:17:31.376Z,3.00
2018-11-22T14:19:59.472Z,3.10
2018-11-22T14:22:27.535Z,3.10
2018-11-22T14:24:55.672Z,3.10
2018-11-22T14:27:23.774Z,3.10
2018-11-22T14:29:51.939Z,3.00
2018-11-22T14:32:20.144Z,3.00
2018-11-22T14:34:48.247Z,2.90
2018-11-22T14:37:16.506Z,3.00
2018-11-22T14:39:44.601Z,3.00
2018-11-22T14:42:12.890Z,3.00
2018-11-22T14:44:42.199Z,3.10
2018-11-22T14:47:10.339Z,3.10
2018-11-22T14:49:38.426Z,3.10
2018-11-22T14:52:06.999Z,3.10
2018-11-22T14:54:35.089Z,3.20
2018-11-22T14:57:03.208Z,3.30
2018-11-22T14:59:31.269Z,3.30
2018-11-22T15:01:59.448Z,3.30
2018-11-22T15:04:27.551Z,3.30
2018-11-22T15:06:55.621Z,3.30
2018-11-22T15:09:23.699Z,3.20
2018-11-22T15:11:51.782Z,3.20
2018-11-22T15:14:19.851Z,3.20
2018-11-22T15:16:48.171Z,3.20
2018-11-22T15:19:16.256Z,3.20
2018-11-22T15:21:44.351Z,3.20
2018-11-22T15:24:12.418Z,3.20
2018-11-22T15:26:41.064Z,3.20
2018-11-22T15:29:09.209Z,3.20
2018-11-22T15:31:37.279Z,3.30
2018-11-22T15:34:05.462Z,3.30
2018-11-22T15:36:33.611Z,3.30
2018-11-22T15:39:01.663Z,3.30
2018-11-22T15:41:29.732Z,3.30
2018-11-22T15:43:57.825Z,3.30
2018-11-22T15:46:25.912Z,3.20
2018-11-22T15:48:54.011Z,3.20
2018-11-22T15:51:22.079Z,3.20
2018-11-22T15:53:50.165Z,3.30
2018-11-22T15:56:18.249Z,3.20
2018-11-22T15:58:46.345Z,3.20
2018-11-22T16:01:14.453Z,3.10
2018-11-22T16:03:42.499Z,3.20
2018-11-22T16:06:10.587Z,3.20
2018-11-22T16:08:38.647Z,3.20
2018-11-22T16:11:06.710Z,3.20
2018-11-22T16:13:34.784Z,3.20
2018-11-22T16:16:02.847Z,3.30
2018-11-22T16:18:30.956Z,3.30
2018-11-22T16:20:59.022Z,3.30
2018-11-22T16:23:27.088Z,3.30
2018-11-22T16:25:56.212Z,3.30
2018-11-22T16:28:24.314Z,3.30
2018-11-22T16:30:52.440Z,3.30
2018-11-22T16:33:20.555Z,3.30
2018-11-22T16:35:48.645Z,3.20
2018-11-22T16:38:17.411Z,3.20
2018-11-22T16:40:46.318Z,3.20
2018-11-22T16:43:14.433Z,3.20
2018-11-22T16:45:42.570Z,3.20
2018-11-22T16:48:12.120Z,3.20
2018-11-22T16:50:40.976Z,3.20
2018-11-22T16:53:09.077Z,3.20
2018-11-22T16:55:37.200Z,3.20
2018-11-22T16:58:09.711Z,3.30
2018-11-22T17:00:39.003Z,3.30
2018-11-22T17:03:10.607Z,3.30
2018-11-22T17:05:38.936Z,3.30
2018-11-22T17:08:07.675Z,3.30
2018-11-22T17:10:35.995Z,3.40
2018-11-22T17:13:04.776Z,3.30
2018-11-22T17:15:34.171Z,3.30
2018-11-22T17:18:02.979Z,3.40
2018-11-22T17:20:32.048Z,3.40
2018-11-22T17:23:00.418Z,3.30
2018-11-22T17:25:29.820Z,3.30
2018-11-22T17:27:59.301Z,3.10
2018-11-22T17:30:32.821Z,3.10
2018-11-22T17:33:00.960Z,3.00
2018-11-22T17:35:29.667Z,3.00
2018-11-22T17:37:59.184Z,3.00
2018-11-22T17:40:29.596Z,2.90
2018-11-22T17:42:57.692Z,2.90
2018-11-22T17:45:30.145Z,3.00
2018-11-22T17:47:58.319Z,2.90
2018-11-22T17:50:30.204Z,2.80
2018-11-22T17:52:58.582Z,2.80
2018-11-22T17:55:27.649Z,2.90
2018-11-22T17:57:55.946Z,2.90
2018-11-22T18:00:25.446Z,2.80
2018-11-22T18:02:54.738Z,2.70
2018-11-22T18:05:27.098Z,2.70
2018-11-22T18:07:50.983Z,2.60
2018-11-22T18:10:20.641Z,2.60
2018-11-22T18:12:49.517Z,2.60
2018-11-22T18:15:18.842Z,2.60
2018-11-22T18:17:47.230Z,2.60
2018-11-22T18:20:20.933Z,2.60
2018-11-22T18:22:50.461Z,2.60
2018-11-22T18:25:20.918Z,2.50
2018-11-22T18:27:49.073Z,2.50
2018-11-22T18:30:18.676Z,2.50
2018-11-22T18:32:49.260Z,2.50
2018-11-22T18:35:16.741Z,2.40
2018-11-22T18:37:44.914Z,2.40
2018-11-22T18:40:15.393Z,2.40
2018-11-22T18:42:44.124Z,2.40
2018-11-22T18:45:14.043Z,2.40
2018-11-22T18:47:42.979Z,2.40
2018-11-22T18:50:15.607Z,2.40
2018-11-22T18:52:41.583Z,2.40
2018-11-22T18:55:10.274Z,2.50
2018-11-22T18:57:38.442Z,2.50
2018-11-22T19:00:13.206Z,2.50
2018-11-22T19:02:41.351Z,2.60
2018-11-22T19:05:10.440Z,2.60
2018-11-22T19:07:38.608Z,2.70
2018-11-22T19:10:17.329Z,2.70
2018-11-22T19:12:46.535Z,2.80
2018-11-22T19:15:15.826Z,2.80
2018-11-22T19:17:44.050Z,2.80
2018-11-22T19:20:14.563Z,2.90
2018-11-22T19:22:43.879Z,2.90
2018-11-22T19:25:12.085Z,3.00
2018-11-22T19:27:40.931Z,3.00
2018-11-22T19:30:11.422Z,3.00
2018-11-22T19:32:44.569Z,3.10
2018-11-22T19:35:13.656Z,3.00
2018-11-22T19:37:45.416Z,3.00
2018-11-22T19:40:16.003Z,3.10
2018-11-22T19:42:45.259Z,3.10
2018-11-22T19:45:15.035Z,3.10
2018-11-22T19:47:43.142Z,3.10
2018-11-22T19:50:14.184Z,3.10
2018-11-22T19:52:42.811Z,3.10
2018-11-22T19:55:13.590Z,3.10
2018-11-22T19:57:42.684Z,3.10
2018-11-22T20:00:11.943Z,3.20
2018-11-22T20:02:41.072Z,3.20
2018-11-22T20:05:10.934Z,3.20
2018-11-22T20:07:39.380Z,3.20
2018-11-22T20:10:10.743Z,3.20
2018-11-22T20:12:38.898Z,3.20
2018-11-22T20:15:07.199Z,3.20
2018-11-22T20:17:35.286Z,3.20
2018-11-22T20:20:03.837Z,3.20
2018-11-22T20:22:32.007Z,3.30
2018-11-22T20:25:00.153Z,3.30
2018-11-22T20:27:28.360Z,3.20
2018-11-22T20:29:56.536Z,3.30
2018-11-22T20:32:25.516Z,3.30
2018-11-22T20:34:53.662Z,3.30
2018-11-22T20:37:21.856Z,3.30
2018-11-22T20:39:49.967Z,3.30
2018-11-22T20:42:18.068Z,3.30
2018-11-22T20:44:46.216Z,3.30
2018-11-22T20:47:14.392Z,3.40
2018-11-22T20:49:42.508Z,3.40
2018-11-22T20:52:10.768Z,3.40
2018-11-22T20:54:38.856Z,3.40
2018-11-22T20:57:06.974Z,3.40
2018-11-22T20:59:35.111Z,3.40
2018-11-22T21:02:03.664Z,3.50
2018-11-22T21:04:31.739Z,3.40
2018-11-22T21:06:59.934Z,3.40
2018-11-22T21:09:28.012Z,3.50
2018-11-22T21:11:57.403Z,3.50
2018-11-22T21:14:25.531Z,3.50
2018-11-22T21:16:54.584Z,3.50
2018-11-22T21:19:22.675Z,3.50
2018-11-22T21:21:50.800Z,3.50
2018-11-22T21:24:18.920Z,3.50
2018-11-22T21:26:47.111Z,3.50
2018-11-22T21:29:16.031Z,3.50
2018-11-22T21:31:44.140Z,3.60
2018-11-22T21:34:12.208Z,3.50
2018-11-22T21:36:40.307Z,3.60
2018-11-22T21:39:09.949Z,3.50
2018-11-22T21:41:38.050Z,3.60
2018-11-22T21:44:06.140Z,3.60
2018-11-22T21:46:34.241Z,3.60
2018-11-22T21:49:03.219Z,3.60
2018-11-22T21:51:31.688Z,3.60
2018-11-22T21:53:59.803Z,3.60
2018-11-22T21:56:27.945Z,3.60
2018-11-22T21:58:56.011Z,3.60
